罗盘
风向 的 风向 的 风向 到 风向 040° 比利·畢曉普多倫多市機場 6/24
风: 7 kt, 3 beaufort

7 kt

1 kt
改变
0 1.000 2.000 3.000 4.000 5.000
没有云
METAR CYTZ 161200Z AUTO 04007KT 360V080 9SM CLR 22/14 A3007 RMK SLP183 DENSITY ALT 1000FT

METAR 比利·畢曉普多倫多市機場 - CYTZ/YTZ

比利·畢曉普多倫多市機場是Toronto,加拿大中的中型机场。 该机场有2条跑道: 6/24 和 8/26. 该领域的国际民航组织标志是CYTZ 它的国际航空运输协会代码是YTZ.

这份报告是针对2022年8月16日 8:00 上午, 当地时间在比利·畢曉普多倫多市機場进行的。

机场观察

风向为040°,速度为7 kt。 风向在360°和080°之间变化。

可见度为9 mi。

有没有云。 没有观察到天花板。

温度和风寒是72 °F。 露点为57 °F,相对湿度为61%。 海平面上的气压为30,07 inHg (QNH)。

白天

今天,太阳从6:23 上午升起,在8:20 下午降落。 这适用于比利·畢曉普多倫多市機場,世界夏令时可能有所不同。 当地时间与世界标准时间之间的时差为-4 小时。 夏令时目前正在进行中。

公司介绍

在这个机场,你可以找到飞行学校。 本场上唯一已知的公司是Island Air Flight School。

体会

到Vliegles.nl去找飞行课程,跳伞和其他飞行体验。 浏览页面,了解比利·畢曉普多倫多市機場附近所有可用的活动。 你也可以使用搜索功能来寻找你所在地附近的特定飞行课程、跳伞或其他飞行体验。

跑道

Id 标题 侧风 逆风 侧风 %
6/24 048°-228° 7 kt 14 %
8/26 069°-249° 3 kt 6 kt 48 %

逆风成分最大的方向会被突出显示,并用于横风计算。 这并不一定意味着这个方向在使用。

乌云

- CLR 没有云

温度 & 天气

温度 72 °F
露点 57 °F
相对湿度 61%
Kp-index 0  

评论

SLP183海平面压力为30,07 inHg (30,07 inHg)
DENSITY ALT 1000FT

白天

日出
6:23 上午
中午
1:21 下午
日落
8:20 下午 (11h 41m)

小工具

你想在你的网站上有一个关于比利·畢曉普多倫多市機場的当前航空天气(METAR)的小部件吗?

</> 显示HTML代码

我们和第三方通过cookies跟踪您在我们网站上的上网行为。如果您继续,我们认为您同意我们的cookie政策。 了解更多